X  Close Metar Aviation Weather Data        EGLF Farnborough
Temperature
9°C Temperature
7°C Dewpoint
87% Humidity



Wind
3 MPH
6 KM/H
1 M/S
3 KTS



200°
SSW
Current Conditions

Partly Cloudy Partly Cloudy
Pressure 1007 (hPa) - 29.74 (inHg)
Visibility 30 (mile) - 48 (km)
Airport
Airport-code EGLF

Location: Farnborough
Distance: 5 (mi)

Metar:
METAR EGLF 171450Z 20003KT 9999 FEW032CB SCT045 09/07 Q1007 RETSRA RETSGR

Time: 17-05-2021 15:50 BST